84NY weather

Skyview Airport
Rush, New York, United States

Public forecast

Using degrees Fahrenheit for public forecast. Weather courtesy of forecast.io.

Closest aviation weather report (METAR) to Skyview Airport

Closest report is Greater Rochester International Airport, 8.4 nm (15.5 km) NNW. Retrieved 2019/10/19 10:54 UTC (14 minutes ago):

KROC 191054Z 23004KT 10SM CLR 01/00 A3008 RMK AO2 SLP195 T00110000

Closest aviation forecast (TAF) to Skyview Airport

Closest forecast is Greater Rochester International Airport, 8.4 nm (15.5 km) NNW. Retrieved 2019/10/19 06:22 UTC (5 hours ago):

TAF KROC 190520Z 1906/2006 24004KT P6SM SCT250 FM191200 VRB04KT P6SM SCT250 FM191800 09006KT P6SM SCT250 FM200200 14006KT P6SM SCT250